Terminal Aerodrome Forecast
Issued by NWS El Paso, TX

Home | Current Version | Previous Version | Text Only | Print | Product List | Glossary On
Versions: 1 2 3 4 5 6 7 8 9 10 11 12
000
FTUS44 KEPZ 240520
TAFELP
TAF
KELP 240520Z 2406/2506 15008KT P6SM FEW250
     FM241000 24008KT P6SM SCT250
     FM241700 24012G20KT P6SM SKC
     FM241900 25024G35KT P6SM SKC
      TEMPO 2420/2424 4SM BLDU=

USA.gov is the U.S. government's official web portal to all federal, state and local government web resources and services.